ENTC/TOS METAR and TAF weather

Enter ICAO airport designator
Station Type Date Time Source
ENTC METAR 2020/11/27 14:20 UTC NOAA

ENTC 271420Z 22017KT 9999 -SHRA BKN042 04/02 Q1011 NOSIG RMK WIND 2600FT 20023KT


Station Type Date Time Source
ENTC Decoded METAR 2020/11/27 14:20 UTC NOAA

Tromso / Langnes, Norway (ENTC) 69-41N 018-55E 10M
Nov 27, 2020 - 09:20 AM EST / 2020.11.27 1420 UTC
Wind: from the SW (220 degrees) at 20 MPH (17 KT):0
Visibility: greater than 7 mile(s):0
Sky conditions: mostly cloudy
Weather: light rain showers
Temperature: 39 F (4 C)
Dew Point: 35 F (2 C)
Relative Humidity: 86%
Pressure (altimeter): 29.85 in. Hg (1011 hPa)
ob: ENTC 271420Z 22017KT 9999 -SHRA BKN042 04/02 Q1011 NOSIG RMK WIND 2600FT 20023KT
cycle: 14

Station Type Date Time Source
ENTC TAF 2020/11/27 12:57 UTC NOAA

TAF ENTC 271100Z 2712/2812 21015KT 9999 FEW030 BKN045

Example: see airport list